Meteo Giornale » Osservazioni meteo Italia » Grazzanise

ore: 17:55 - Osservazioni Meteo Grazzanise
Lat. 41° 3' N Lon. 14° 4' E Alt. 9 metri s.l.m.

nuvoloso Europe/Rome

11 °C

Nuvoloso

Temp. 24 Ore

9 °C

16 °C

Nord

0 Km/h

Dew point 6 °C

Umidità 71 %

Visibilità  10 Km

Il sole sorge alle ore 07:07

Il sole tramonta alle ore 16:37

Data e Ora Cielo e Fenomeni T °C DP °C Um. % Pres. hPa Vis. km Vento km/h
Oggi h: 17:55 nuvoloso Nuvoloso 11 6 71 1019 10 N 0
Oggi h: 16:55 nuvoloso Nuvoloso 12 7 71 1019 10 N 0
Oggi h: 15:55 nuvoloso Nuvoloso 14 8 67 1019 10 N 0
Oggi h: 14:55 nuvoloso Nuvoloso 16 8 58 1018 10 N 0
Oggi h: 13:55 poco_nuvoloso Poco Nuvoloso 16 9 63 1018 10 N 0
Oggi h: 12:55 poco_nuvoloso Poco Nuvoloso 16 9 63 1019 10 N 0
Oggi h: 11:55 poco_nuvoloso Poco Nuvoloso 16 9 63 1019 10 N 0
Oggi h: 10:55 poco_nuvoloso Poco Nuvoloso 15 9 67 1019 10 N 0
Oggi h: 09:55 poco_nuvoloso Poco Nuvoloso 14 7 62 1019 10 N 0
Oggi h: 08:55 poco_nuvoloso Poco Nuvoloso 12 9 81 1018 10 N 0
Oggi h: 07:55 poco_nuvoloso Poco Nuvoloso 9 8 93 1018 10 N 0
Oggi h: 05:55 sereno Sereno 10 7 81 1015 10 N 0
Oggi h: 03:55 sereno Sereno 11 8 81 1014 10 N 0
Oggi h: 02:55 nuvoloso Nuvoloso 11 8 81 1014 10 N 0
Oggi h: 01:55 nuvoloso Nuvoloso 12 9 81 1013 10 N 0
Oggi h: 00:55 nuvoloso Nuvoloso 12 9 81 1013 10 N 0
Ieri h: 23:55 molto_nuvoloso Molto Nuvoloso 12 9 81 1012 10 N 0
Ieri h: 22:55 nuvoloso Nuvoloso 12 9 81 1012 10 N 0
Ieri h: 21:55 nuvoloso Nuvoloso 13 10 81 1012 10 N 0
Ieri h: 20:55 molto_nuvoloso Molto Nuvoloso 13 10 81 1011 10 N 0